sensor_id;sensor_type;location;lat;lon;timestamp;pressure;altitude;pressure_sealevel;temperature;humidity
13867;BME280;7003;46.982;15.248;2022-10-31T00:00:43;97721.09;;;9.31;100.00
13867;BME280;7003;46.982;15.248;2022-10-31T00:03:13;97716.06;;;9.30;100.00
13867;BME280;7003;46.982;15.248;2022-10-31T00:05:43;97718.63;;;9.35;100.00
13867;BME280;7003;46.982;15.248;2022-10-31T00:08:10;97725.00;;;9.34;100.00
13867;BME280;7003;46.982;15.248;2022-10-31T00:10:40;97725.31;;;9.32;100.00
13867;BME280;7003;46.982;15.248;2022-10-31T00:13:07;97729.84;;;9.32;100.00
13867;BME280;7003;46.982;15.248;2022-10-31T00:15:35;97719.06;;;9.28;100.00
13867;BME280;7003;46.982;15.248;2022-10-31T00:18:04;97724.34;;;9.28;100.00
13867;BME280;7003;46.982;15.248;2022-10-31T00:20:34;97718.56;;;9.26;100.00
13867;BME280;7003;46.982;15.248;2022-10-31T00:23:05;97712.22;;;9.36;100.00
13867;BME280;7003;46.982;15.248;2022-10-31T00:25:37;97721.03;;;9.22;100.00
13867;BME280;7003;46.982;15.248;2022-10-31T00:28:07;97721.81;;;9.23;100.00
13867;BME280;7003;46.982;15.248;2022-10-31T00:30:36;97717.13;;;9.20;100.00
13867;BME280;7003;46.982;15.248;2022-10-31T00:33:04;97719.09;;;9.14;100.00
13867;BME280;7003;46.982;15.248;2022-10-31T00:35:31;97717.94;;;9.07;100.00
13867;BME280;7003;46.982;15.248;2022-10-31T00:37:59;97717.56;;;9.00;100.00
13867;BME280;7003;46.982;15.248;2022-10-31T00:40:26;97719.38;;;8.91;100.00
13867;BME280;7003;46.982;15.248;2022-10-31T00:42:53;97716.91;;;8.94;100.00
13867;BME280;7003;46.982;15.248;2022-10-31T00:45:22;97718.50;;;8.95;100.00
13867;BME280;7003;46.982;15.248;2022-10-31T00:47:49;97713.84;;;9.01;100.00
13867;BME280;7003;46.982;15.248;2022-10-31T00:50:18;97711.81;;;8.98;100.00
13867;BME280;7003;46.982;15.248;2022-10-31T00:52:45;97709.97;;;9.07;100.00
13867;BME280;7003;46.982;15.248;2022-10-31T00:55:12;97706.84;;;8.82;100.00
13867;BME280;7003;46.982;15.248;2022-10-31T00:57:41;97712.16;;;8.82;100.00
13867;BME280;7003;46.982;15.248;2022-10-31T01:00:11;97704.84;;;8.88;100.00
13867;BME280;7003;46.982;15.248;2022-10-31T01:02:42;97706.06;;;8.82;100.00
13867;BME280;7003;46.982;15.248;2022-10-31T01:05:09;97712.94;;;8.69;100.00
13867;BME280;7003;46.982;15.248;2022-10-31T01:07:37;97709.13;;;8.62;100.00
13867;BME280;7003;46.982;15.248;2022-10-31T01:10:05;97710.34;;;8.56;100.00
13867;BME280;7003;46.982;15.248;2022-10-31T01:12:36;97710.78;;;8.71;100.00
13867;BME280;7003;46.982;15.248;2022-10-31T01:15:06;97695.84;;;8.75;100.00
13867;BME280;7003;46.982;15.248;2022-10-31T01:17:34;97697.41;;;8.76;100.00
13867;BME280;7003;46.982;15.248;2022-10-31T01:20:03;97703.31;;;8.73;100.00
13867;BME280;7003;46.982;15.248;2022-10-31T01:22:33;97689.16;;;8.78;100.00
13867;BME280;7003;46.982;15.248;2022-10-31T01:25:00;97689.16;;;8.78;100.00
13867;BME280;7003;46.982;15.248;2022-10-31T01:27:27;97691.56;;;8.66;100.00
13867;BME280;7003;46.982;15.248;2022-10-31T01:29:54;97694.38;;;8.69;100.00
13867;BME280;7003;46.982;15.248;2022-10-31T01:32:21;97685.22;;;8.75;100.00
13867;BME280;7003;46.982;15.248;2022-10-31T01:34:48;97689.19;;;8.64;100.00
13867;BME280;7003;46.982;15.248;2022-10-31T01:37:17;97688.44;;;8.50;100.00
13867;BME280;7003;46.982;15.248;2022-10-31T01:39:44;97689.41;;;8.54;100.00
13867;BME280;7003;46.982;15.248;2022-10-31T01:42:18;97691.97;;;8.59;100.00
13867;BME280;7003;46.982;15.248;2022-10-31T01:44:54;97686.97;;;8.58;100.00
13867;BME280;7003;46.982;15.248;2022-10-31T01:47:41;97679.63;;;8.41;100.00
13867;BME280;7003;46.982;15.248;2022-10-31T01:50:24;97686.66;;;8.45;100.00
13867;BME280;7003;46.982;15.248;2022-10-31T01:52:57;97677.34;;;8.84;100.00
13867;BME280;7003;46.982;15.248;2022-10-31T01:55:28;97678.97;;;8.94;100.00
13867;BME280;7003;46.982;15.248;2022-10-31T01:57:59;97670.44;;;8.61;100.00
13867;BME280;7003;46.982;15.248;2022-10-31T02:00:29;97659.16;;;8.55;100.00
13867;BME280;7003;46.982;15.248;2022-10-31T02:02:59;97657.03;;;8.43;100.00
13867;BME280;7003;46.982;15.248;2022-10-31T02:05:29;97665.66;;;8.49;100.00
13867;BME280;7003;46.982;15.248;2022-10-31T02:08:01;97662.31;;;8.57;100.00
13867;BME280;7003;46.982;15.248;2022-10-31T02:10:32;97660.75;;;8.56;100.00
13867;BME280;7003;46.982;15.248;2022-10-31T02:13:02;97663.09;;;8.44;100.00
13867;BME280;7003;46.982;15.248;2022-10-31T02:15:30;97658.72;;;8.26;100.00
13867;BME280;7003;46.982;15.248;2022-10-31T02:17:58;97659.75;;;8.52;100.00
13867;BME280;7003;46.982;15.248;2022-10-31T02:20:30;97657.63;;;8.40;100.00
13867;BME280;7003;46.982;15.248;2022-10-31T02:23:19;97655.66;;;8.46;100.00
13867;BME280;7003;46.982;15.248;2022-10-31T02:28:57;97657.78;;;8.58;100.00
13867;BME280;7003;46.982;15.248;2022-10-31T02:31:37;97651.50;;;8.54;100.00
13867;BME280;7003;46.982;15.248;2022-10-31T02:34:16;97651.13;;;8.46;100.00
13867;BME280;7003;46.982;15.248;2022-10-31T02:36:52;97660.19;;;8.32;100.00
13867;BME280;7003;46.982;15.248;2022-10-31T02:39:26;97649.16;;;8.52;100.00
13867;BME280;7003;46.982;15.248;2022-10-31T02:42:03;97648.78;;;8.45;100.00
13867;BME280;7003;46.982;15.248;2022-10-31T02:44:37;97652.13;;;8.37;100.00
13867;BME280;7003;46.982;15.248;2022-10-31T02:47:13;97653.97;;;8.50;100.00
13867;BME280;7003;46.982;15.248;2022-10-31T02:49:45;97649.06;;;8.30;100.00
13867;BME280;7003;46.982;15.248;2022-10-31T02:52:18;97660.97;;;8.32;100.00
13867;BME280;7003;46.982;15.248;2022-10-31T02:54:48;97657.63;;;8.27;100.00
13867;BME280;7003;46.982;15.248;2022-10-31T02:57:22;97646.44;;;8.43;100.00
13867;BME280;7003;46.982;15.248;2022-10-31T02:59:55;97656.84;;;8.26;100.00
13867;BME280;7003;46.982;15.248;2022-10-31T03:02:50;97659.91;;;8.20;100.00
13867;BME280;7003;46.982;15.248;2022-10-31T03:05:36;97655.44;;;8.29;100.00
13867;BME280;7003;46.982;15.248;2022-10-31T03:08:14;97653.69;;;8.24;100.00
13867;BME280;7003;46.982;15.248;2022-10-31T03:10:53;97650.38;;;8.19;100.00
13867;BME280;7003;46.982;15.248;2022-10-31T03:13:26;97658.91;;;8.16;100.00
13867;BME280;7003;46.982;15.248;2022-10-31T03:16:06;97655.19;;;8.17;100.00
13867;BME280;7003;46.982;15.248;2022-10-31T03:18:40;97657.84;;;8.17;100.00
13867;BME280;7003;46.982;15.248;2022-10-31T03:21:13;97655.47;;;8.15;100.00
13867;BME280;7003;46.982;15.248;2022-10-31T03:23:43;97665.00;;;8.02;100.00
13867;BME280;7003;46.982;15.248;2022-10-31T03:26:12;97664.91;;;8.07;100.00
13867;BME280;7003;46.982;15.248;2022-10-31T03:28:47;97662.53;;;8.06;100.00
13867;BME280;7003;46.982;15.248;2022-10-31T03:31:17;97658.13;;;8.01;100.00
13867;BME280;7003;46.982;15.248;2022-10-31T03:33:50;97670.28;;;8.16;100.00
13867;BME280;7003;46.982;15.248;2022-10-31T03:36:20;97672.47;;;8.28;100.00
13867;BME280;7003;46.982;15.248;2022-10-31T03:38:48;97672.75;;;8.40;100.00
13867;BME280;7003;46.982;15.248;2022-10-31T03:41:21;97670.97;;;8.22;100.00
13867;BME280;7003;46.982;15.248;2022-10-31T03:43:56;97673.94;;;8.34;100.00
13867;BME280;7003;46.982;15.248;2022-10-31T03:46:26;97668.53;;;8.25;100.00
13867;BME280;7003;46.982;15.248;2022-10-31T03:48:58;97678.75;;;8.18;100.00
13867;BME280;7003;46.982;15.248;2022-10-31T03:51:33;97669.69;;;8.05;100.00
13867;BME280;7003;46.982;15.248;2022-10-31T03:54:08;97670.72;;;7.96;100.00
13867;BME280;7003;46.982;15.248;2022-10-31T03:56:39;97674.72;;;8.07;100.00
13867;BME280;7003;46.982;15.248;2022-10-31T03:59:12;97673.34;;;7.96;100.00
13867;BME280;7003;46.982;15.248;2022-10-31T04:01:47;97671.88;;;7.90;100.00
13867;BME280;7003;46.982;15.248;2022-10-31T04:04:18;97667.66;;;7.89;100.00
13867;BME280;7003;46.982;15.248;2022-10-31T04:06:47;97664.81;;;7.85;100.00
13867;BME280;7003;46.982;15.248;2022-10-31T04:09:16;97669.63;;;7.97;100.00
13867;BME280;7003;46.982;15.248;2022-10-31T04:11:50;97673.75;;;7.89;100.00
13867;BME280;7003;46.982;15.248;2022-10-31T04:14:21;97667.28;;;7.95;100.00
13867;BME280;7003;46.982;15.248;2022-10-31T04:16:53;97672.19;;;7.88;100.00
13867;BME280;7003;46.982;15.248;2022-10-31T04:19:22;97667.47;;;7.85;100.00
13867;BME280;7003;46.982;15.248;2022-10-31T04:21:49;97665.81;;;7.89;100.00
13867;BME280;7003;46.982;15.248;2022-10-31T04:24:18;97663.75;;;7.72;100.00
13867;BME280;7003;46.982;15.248;2022-10-31T04:26:45;97670.28;;;7.75;100.00
13867;BME280;7003;46.982;15.248;2022-10-31T04:29:12;97666.38;;;7.72;100.00
13867;BME280;7003;46.982;15.248;2022-10-31T04:31:39;97669.22;;;7.76;100.00
13867;BME280;7003;46.982;15.248;2022-10-31T04:34:06;97666.56;;;7.76;100.00
13867;BME280;7003;46.982;15.248;2022-10-31T04:36:35;97668.25;;;7.72;100.00
13867;BME280;7003;46.982;15.248;2022-10-31T04:39:02;97669.16;;;7.81;100.00
13867;BME280;7003;46.982;15.248;2022-10-31T04:41:29;97667.25;;;7.68;100.00
13867;BME280;7003;46.982;15.248;2022-10-31T04:43:56;97666.19;;;7.69;100.00
13867;BME280;7003;46.982;15.248;2022-10-31T04:46:25;97668.03;;;7.68;100.00
13867;BME280;7003;46.982;15.248;2022-10-31T04:48:52;97672.25;;;7.69;100.00
13867;BME280;7003;46.982;15.248;2022-10-31T04:51:20;97668.03;;;7.68;100.00
13867;BME280;7003;46.982;15.248;2022-10-31T04:53:48;97667.66;;;7.75;100.00
13867;BME280;7003;46.982;15.248;2022-10-31T04:56:17;97672.34;;;7.64;100.00
13867;BME280;7003;46.982;15.248;2022-10-31T04:58:47;97666.19;;;7.83;100.00
13867;BME280;7003;46.982;15.248;2022-10-31T05:01:14;97670.00;;;7.90;100.00
13867;BME280;7003;46.982;15.248;2022-10-31T05:03:41;97659.00;;;7.42;100.00
13867;BME280;7003;46.982;15.248;2022-10-31T05:06:08;97666.47;;;7.67;100.00
13867;BME280;7003;46.982;15.248;2022-10-31T05:08:38;97671.34;;;7.60;100.00
13867;BME280;7003;46.982;15.248;2022-10-31T05:11:06;97669.78;;;7.46;100.00
13867;BME280;7003;46.982;15.248;2022-10-31T05:13:33;97676.19;;;7.58;100.00
13867;BME280;7003;46.982;15.248;2022-10-31T05:16:01;97672.66;;;7.63;100.00
13867;BME280;7003;46.982;15.248;2022-10-31T05:18:28;97665.38;;;7.55;100.00
13867;BME280;7003;46.982;15.248;2022-10-31T05:20:58;97665.78;;;7.62;100.00
13867;BME280;7003;46.982;15.248;2022-10-31T05:23:29;97672.44;;;7.59;100.00
13867;BME280;7003;46.982;15.248;2022-10-31T05:25:58;97666.28;;;7.91;100.00
13867;BME280;7003;46.982;15.248;2022-10-31T05:28:30;97681.78;;;7.70;100.00
13867;BME280;7003;46.982;15.248;2022-10-31T05:30:58;97679.41;;;7.83;100.00
13867;BME280;7003;46.982;15.248;2022-10-31T05:33:26;97674.34;;;7.72;100.00
13867;BME280;7003;46.982;15.248;2022-10-31T05:35:54;97681.66;;;7.62;100.00
13867;BME280;7003;46.982;15.248;2022-10-31T05:38:23;97674.72;;;7.66;100.00
13867;BME280;7003;46.982;15.248;2022-10-31T05:40:55;97673.59;;;7.53;100.00
13867;BME280;7003;46.982;15.248;2022-10-31T05:43:27;97674.41;;;7.54;100.00
13867;BME280;7003;46.982;15.248;2022-10-31T05:45:59;97674.91;;;7.56;100.00
13867;BME280;7003;46.982;15.248;2022-10-31T05:48:35;97671.25;;;7.52;100.00
13867;BME280;7003;46.982;15.248;2022-10-31T05:51:08;97681.16;;;7.60;100.00
13867;BME280;7003;46.982;15.248;2022-10-31T05:53:40;97681.59;;;8.08;100.00
13867;BME280;7003;46.982;15.248;2022-10-31T05:56:10;97678.84;;;7.99;100.00
13867;BME280;7003;46.982;15.248;2022-10-31T05:58:40;97684.25;;;7.94;100.00
13867;BME280;7003;46.982;15.248;2022-10-31T06:01:13;97683.75;;;7.79;100.00
13867;BME280;7003;46.982;15.248;2022-10-31T06:03:45;97685.50;;;7.69;100.00
13867;BME280;7003;46.982;15.248;2022-10-31T06:06:14;97693.72;;;7.68;100.00
13867;BME280;7003;46.982;15.248;2022-10-31T06:08:45;97686.78;;;7.58;100.00
13867;BME280;7003;46.982;15.248;2022-10-31T06:11:14;97694.13;;;7.61;100.00
13867;BME280;7003;46.982;15.248;2022-10-31T06:13:47;97694.13;;;7.75;100.00
13867;BME280;7003;46.982;15.248;2022-10-31T06:16:22;97696.31;;;7.73;100.00
13867;BME280;7003;46.982;15.248;2022-10-31T06:18:53;97681.09;;;7.79;100.00
13867;BME280;7003;46.982;15.248;2022-10-31T06:21:24;97692.59;;;7.88;100.00
13867;BME280;7003;46.982;15.248;2022-10-31T06:23:55;97693.06;;;8.03;100.00
13867;BME280;7003;46.982;15.248;2022-10-31T06:26:25;97685.91;;;8.18;100.00
13867;BME280;7003;46.982;15.248;2022-10-31T06:28:55;97691.41;;;8.48;100.00
13867;BME280;7003;46.982;15.248;2022-10-31T06:31:29;97688.06;;;8.43;100.00
13867;BME280;7003;46.982;15.248;2022-10-31T06:33:59;97696.97;;;8.47;100.00
13867;BME280;7003;46.982;15.248;2022-10-31T06:36:32;97699.19;;;8.67;100.00
13867;BME280;7003;46.982;15.248;2022-10-31T06:39:01;97692.72;;;8.73;100.00
13867;BME280;7003;46.982;15.248;2022-10-31T06:41:31;97704.22;;;8.91;100.00
13867;BME280;7003;46.982;15.248;2022-10-31T06:44:05;97701.66;;;9.00;100.00
13867;BME280;7003;46.982;15.248;2022-10-31T06:46:36;97702.34;;;9.27;100.00
13867;BME280;7003;46.982;15.248;2022-10-31T06:49:08;97707.03;;;9.31;100.00
13867;BME280;7003;46.982;15.248;2022-10-31T06:51:41;97713.97;;;9.18;100.00
13867;BME280;7003;46.982;15.248;2022-10-31T06:54:13;97716.94;;;9.70;100.00
13867;BME280;7003;46.982;15.248;2022-10-31T06:56:46;97719.13;;;10.07;100.00
13867;BME280;7003;46.982;15.248;2022-10-31T06:59:17;97709.72;;;10.32;100.00
13867;BME280;7003;46.982;15.248;2022-10-31T07:01:49;97713.22;;;10.50;100.00
13867;BME280;7003;46.982;15.248;2022-10-31T07:04:21;97723.03;;;10.40;100.00
13867;BME280;7003;46.982;15.248;2022-10-31T07:06:51;97726.66;;;10.45;100.00
13867;BME280;7003;46.982;15.248;2022-10-31T07:09:21;97727.91;;;10.56;100.00
13867;BME280;7003;46.982;15.248;2022-10-31T07:11:53;97726.66;;;10.62;100.00
13867;BME280;7003;46.982;15.248;2022-10-31T07:14:23;97733.78;;;10.84;100.00
13867;BME280;7003;46.982;15.248;2022-10-31T07:16:57;97734.84;;;11.08;100.00
13867;BME280;7003;46.982;15.248;2022-10-31T07:19:29;97726.84;;;11.43;100.00
13867;BME280;7003;46.982;15.248;2022-10-31T07:22:02;97739.97;;;11.65;100.00
13867;BME280;7003;46.982;15.248;2022-10-31T07:24:31;97732.50;;;11.33;100.00
13867;BME280;7003;46.982;15.248;2022-10-31T07:27:07;97730.00;;;11.36;100.00
13867;BME280;7003;46.982;15.248;2022-10-31T07:29:38;97726.03;;;11.60;100.00
13867;BME280;7003;46.982;15.248;2022-10-31T07:32:10;97731.75;;;11.96;100.00
13867;BME280;7003;46.982;15.248;2022-10-31T07:34:40;97736.63;;;12.32;100.00
13867;BME280;7003;46.982;15.248;2022-10-31T07:37:11;97733.53;;;12.30;100.00
13867;BME280;7003;46.982;15.248;2022-10-31T07:39:41;97733.56;;;12.51;100.00
13867;BME280;7003;46.982;15.248;2022-10-31T07:42:13;97731.78;;;12.84;100.00
13867;BME280;7003;46.982;15.248;2022-10-31T07:44:47;97738.38;;;13.07;100.00
13867;BME280;7003;46.982;15.248;2022-10-31T07:47:18;97728.75;;;13.48;100.00
13867;BME280;7003;46.982;15.248;2022-10-31T07:49:54;97736.28;;;13.67;100.00
13867;BME280;7003;46.982;15.248;2022-10-31T07:52:26;97745.16;;;13.59;100.00
13867;BME280;7003;46.982;15.248;2022-10-31T07:55:01;97736.06;;;13.72;100.00
13867;BME280;7003;46.982;15.248;2022-10-31T07:57:34;97741.47;;;13.84;100.00
13867;BME280;7003;46.982;15.248;2022-10-31T08:00:07;97743.81;;;14.10;100.00
13867;BME280;7003;46.982;15.248;2022-10-31T08:02:40;97749.16;;;14.10;100.00
13867;BME280;7003;46.982;15.248;2022-10-31T08:05:11;97736.53;;;14.43;100.00
13867;BME280;7003;46.982;15.248;2022-10-31T08:07:46;97748.78;;;14.56;100.00
13867;BME280;7003;46.982;15.248;2022-10-31T08:10:18;97745.28;;;14.80;100.00
13867;BME280;7003;46.982;15.248;2022-10-31T08:12:55;97738.84;;;14.69;100.00
13867;BME280;7003;46.982;15.248;2022-10-31T08:15:26;97746.31;;;14.63;100.00
13867;BME280;7003;46.982;15.248;2022-10-31T08:17:59;97751.97;;;14.98;100.00
13867;BME280;7003;46.982;15.248;2022-10-31T08:20:30;97748.19;;;14.87;100.00
13867;BME280;7003;46.982;15.248;2022-10-31T08:23:03;97742.03;;;14.99;100.00
13867;BME280;7003;46.982;15.248;2022-10-31T08:25:34;97754.44;;;15.31;100.00
13867;BME280;7003;46.982;15.248;2022-10-31T08:28:08;97740.19;;;15.55;100.00
13867;BME280;7003;46.982;15.248;2022-10-31T08:30:37;97749.47;;;15.46;100.00
13867;BME280;7003;46.982;15.248;2022-10-31T08:33:09;97752.81;;;15.43;100.00
13867;BME280;7003;46.982;15.248;2022-10-31T08:35:40;97748.75;;;15.33;100.00
13867;BME280;7003;46.982;15.248;2022-10-31T08:38:08;97744.41;;;15.28;100.00
13867;BME280;7003;46.982;15.248;2022-10-31T08:40:40;97742.44;;;15.41;100.00
13867;BME280;7003;46.982;15.248;2022-10-31T08:43:11;97747.38;;;15.67;100.00
13867;BME280;7003;46.982;15.248;2022-10-31T08:45:43;97753.78;;;15.62;100.00
13867;BME280;7003;46.982;15.248;2022-10-31T08:48:18;97746.88;;;15.61;100.00
13867;BME280;7003;46.982;15.248;2022-10-31T08:50:56;97743.13;;;15.66;100.00
13867;BME280;7003;46.982;15.248;2022-10-31T08:53:28;97743.31;;;15.73;100.00
13867;BME280;7003;46.982;15.248;2022-10-31T08:55:59;97736.31;;;15.68;100.00
13867;BME280;7003;46.982;15.248;2022-10-31T08:58:29;97741.38;;;15.86;100.00
13867;BME280;7003;46.982;15.248;2022-10-31T09:01:01;97735.28;;;15.89;100.00
13867;BME280;7003;46.982;15.248;2022-10-31T09:03:31;97749.84;;;15.88;100.00
13867;BME280;7003;46.982;15.248;2022-10-31T09:06:03;97744.41;;;16.00;100.00
13867;BME280;7003;46.982;15.248;2022-10-31T09:08:35;97738.78;;;16.05;100.00
13867;BME280;7003;46.982;15.248;2022-10-31T09:11:05;97746.16;;;16.24;100.00
13867;BME280;7003;46.982;15.248;2022-10-31T09:13:36;97738.00;;;16.20;100.00
13867;BME280;7003;46.982;15.248;2022-10-31T09:16:06;97743.72;;;16.18;100.00
13867;BME280;7003;46.982;15.248;2022-10-31T09:18:36;97740.50;;;16.29;100.00
13867;BME280;7003;46.982;15.248;2022-10-31T09:21:07;97736.69;;;16.30;100.00
13867;BME280;7003;46.982;15.248;2022-10-31T09:23:36;97747.72;;;16.40;100.00
13867;BME280;7003;46.982;15.248;2022-10-31T09:26:04;97731.47;;;16.52;100.00
13867;BME280;7003;46.982;15.248;2022-10-31T09:28:32;97742.91;;;16.49;100.00
13867;BME280;7003;46.982;15.248;2022-10-31T09:31:00;97742.13;;;16.65;100.00
13867;BME280;7003;46.982;15.248;2022-10-31T09:33:31;97745.94;;;16.79;100.00
13867;BME280;7003;46.982;15.248;2022-10-31T09:36:01;97734.78;;;16.97;100.00
13867;BME280;7003;46.982;15.248;2022-10-31T09:38:32;97745.53;;;16.97;100.00
13867;BME280;7003;46.982;15.248;2022-10-31T09:41:07;97747.19;;;17.01;100.00
13867;BME280;7003;46.982;15.248;2022-10-31T09:43:49;97732.53;;;17.37;100.00
13867;BME280;7003;46.982;15.248;2022-10-31T09:46:22;97747.91;;;17.56;100.00
13867;BME280;7003;46.982;15.248;2022-10-31T09:49:12;97740.47;;;17.68;100.00
13867;BME280;7003;46.982;15.248;2022-10-31T09:51:51;97737.50;;;17.96;100.00
13867;BME280;7003;46.982;15.248;2022-10-31T09:54:28;97740.53;;;18.40;100.00
13867;BME280;7003;46.982;15.248;2022-10-31T09:56:59;97726.53;;;18.80;100.00
13867;BME280;7003;46.982;15.248;2022-10-31T09:59:34;97733.97;;;19.20;100.00
13867;BME280;7003;46.982;15.248;2022-10-31T10:02:05;97736.47;;;19.36;100.00
13867;BME280;7003;46.982;15.248;2022-10-31T10:04:43;97731.38;;;19.61;100.00
13867;BME280;7003;46.982;15.248;2022-10-31T10:07:20;97726.66;;;19.51;100.00
13867;BME280;7003;46.982;15.248;2022-10-31T10:09:50;97728.31;;;19.63;100.00
13867;BME280;7003;46.982;15.248;2022-10-31T10:12:33;97731.13;;;19.73;100.00
13867;BME280;7003;46.982;15.248;2022-10-31T10:15:25;97718.72;;;19.65;100.00
13867;BME280;7003;46.982;15.248;2022-10-31T10:18:03;97722.13;;;19.99;100.00
13867;BME280;7003;46.982;15.248;2022-10-31T10:20:35;97730.25;;;20.03;100.00
13867;BME280;7003;46.982;15.248;2022-10-31T10:23:29;97720.00;;;19.78;100.00
13867;BME280;7003;46.982;15.248;2022-10-31T10:26:04;97715.13;;;19.94;100.00
13867;BME280;7003;46.982;15.248;2022-10-31T10:28:38;97710.50;;;20.35;100.00
13867;BME280;7003;46.982;15.248;2022-10-31T10:31:11;97709.13;;;20.63;100.00
13867;BME280;7003;46.982;15.248;2022-10-31T10:33:54;97709.59;;;20.75;100.00
13867;BME280;7003;46.982;15.248;2022-10-31T10:36:27;97713.50;;;20.82;100.00
13867;BME280;7003;46.982;15.248;2022-10-31T10:39:02;97713.06;;;20.76;100.00
13867;BME280;7003;46.982;15.248;2022-10-31T10:41:31;97712.47;;;19.98;100.00
13867;BME280;7003;46.982;15.248;2022-10-31T10:44:07;97711.31;;;19.99;100.00
13867;BME280;7003;46.982;15.248;2022-10-31T10:46:41;97703.03;;;19.78;100.00
13867;BME280;7003;46.982;15.248;2022-10-31T10:49:30;97703.28;;;20.06;100.00
13867;BME280;7003;46.982;15.248;2022-10-31T10:52:08;97701.50;;;20.24;100.00
13867;BME280;7003;46.982;15.248;2022-10-31T10:54:58;97703.22;;;19.99;100.00
13867;BME280;7003;46.982;15.248;2022-10-31T10:57:51;97699.47;;;20.14;100.00
13867;BME280;7003;46.982;15.248;2022-10-31T11:00:23;97688.81;;;20.32;100.00
13867;BME280;7003;46.982;15.248;2022-10-31T11:02:51;97690.81;;;20.35;100.00
13867;BME280;7003;46.982;15.248;2022-10-31T11:05:26;97682.44;;;20.51;100.00
13867;BME280;7003;46.982;15.248;2022-10-31T11:07:58;97683.13;;;20.41;100.00
13867;BME280;7003;46.982;15.248;2022-10-31T11:10:30;97683.53;;;20.43;100.00
13867;BME280;7003;46.982;15.248;2022-10-31T11:13:02;97673.16;;;20.52;100.00
13867;BME280;7003;46.982;15.248;2022-10-31T11:15:34;97682.50;;;20.68;100.00
13867;BME280;7003;46.982;15.248;2022-10-31T11:18:04;97679.88;;;20.79;100.00
13867;BME280;7003;46.982;15.248;2022-10-31T11:20:36;97672.47;;;20.65;100.00
13867;BME280;7003;46.982;15.248;2022-10-31T11:23:16;97674.09;;;20.84;100.00
13867;BME280;7003;46.982;15.248;2022-10-31T11:25:50;97675.19;;;20.65;100.00
13867;BME280;7003;46.982;15.248;2022-10-31T11:28:20;97670.88;;;20.61;100.00
13867;BME280;7003;46.982;15.248;2022-10-31T11:30:53;97669.88;;;20.87;100.00
13867;BME280;7003;46.982;15.248;2022-10-31T11:33:26;97670.72;;;21.05;100.00
13867;BME280;7003;46.982;15.248;2022-10-31T11:35:57;97663.50;;;21.37;100.00
13867;BME280;7003;46.982;15.248;2022-10-31T11:38:31;97660.03;;;21.37;97.35
13867;BME280;7003;46.982;15.248;2022-10-31T11:41:14;97652.25;;;21.25;100.00
13867;BME280;7003;46.982;15.248;2022-10-31T11:43:49;97656.81;;;21.06;97.42
13867;BME280;7003;46.982;15.248;2022-10-31T11:46:21;97654.25;;;21.45;98.38
13867;BME280;7003;46.982;15.248;2022-10-31T11:48:51;97654.28;;;21.56;93.56
13867;BME280;7003;46.982;15.248;2022-10-31T11:51:22;97649.88;;;21.16;93.39
13867;BME280;7003;46.982;15.248;2022-10-31T11:53:55;97643.66;;;21.01;95.20
13867;BME280;7003;46.982;15.248;2022-10-31T11:56:25;97645.22;;;21.06;96.04
13867;BME280;7003;46.982;15.248;2022-10-31T11:58:56;97639.03;;;21.02;94.94
13867;BME280;7003;46.982;15.248;2022-10-31T12:01:27;97647.22;;;21.20;98.36
13867;BME280;7003;46.982;15.248;2022-10-31T12:04:04;97643.06;;;21.61;90.74
13867;BME280;7003;46.982;15.248;2022-10-31T12:06:35;97644.16;;;21.32;92.81
13867;BME280;7003;46.982;15.248;2022-10-31T12:09:17;97632.16;;;21.26;90.05
13867;BME280;7003;46.982;15.248;2022-10-31T12:11:56;97636.03;;;21.21;89.50
13867;BME280;7003;46.982;15.248;2022-10-31T12:14:36;97631.03;;;21.27;90.99
13867;BME280;7003;46.982;15.248;2022-10-31T12:17:14;97626.78;;;21.36;90.33
13867;BME280;7003;46.982;15.248;2022-10-31T12:19:49;97633.44;;;22.03;91.50
13867;BME280;7003;46.982;15.248;2022-10-31T12:22:27;97627.59;;;21.94;84.93
13867;BME280;7003;46.982;15.248;2022-10-31T12:25:15;97627.22;;;21.84;88.94
13867;BME280;7003;46.982;15.248;2022-10-31T12:30:53;97621.41;;;21.61;86.81
13867;BME280;7003;46.982;15.248;2022-10-31T12:33:32;97617.53;;;21.76;85.49
13867;BME280;7003;46.982;15.248;2022-10-31T12:36:19;97603.63;;;21.57;85.95
13867;BME280;7003;46.982;15.248;2022-10-31T12:39:04;97610.59;;;22.04;86.00
13867;BME280;7003;46.982;15.248;2022-10-31T12:41:46;97606.59;;;22.69;86.50
13867;BME280;7003;46.982;15.248;2022-10-31T12:44:42;97602.69;;;22.73;81.16
13867;BME280;7003;46.982;15.248;2022-10-31T12:47:36;97617.47;;;22.58;81.03
13867;BME280;7003;46.982;15.248;2022-10-31T12:50:35;97611.19;;;22.86;80.86
13867;BME280;7003;46.982;15.248;2022-10-31T12:53:19;97601.56;;;22.67;78.41
13867;BME280;7003;46.982;15.248;2022-10-31T12:56:03;97602.47;;;22.11;80.64
13867;BME280;7003;46.982;15.248;2022-10-31T12:58:38;97601.31;;;21.66;83.44
13867;BME280;7003;46.982;15.248;2022-10-31T13:01:16;97600.53;;;21.72;85.67
13867;BME280;7003;46.982;15.248;2022-10-31T13:03:51;97602.06;;;22.23;86.33
13867;BME280;7003;46.982;15.248;2022-10-31T13:06:24;97598.50;;;22.51;84.65
13867;BME280;7003;46.982;15.248;2022-10-31T13:09:00;97603.44;;;22.91;80.26
13867;BME280;7003;46.982;15.248;2022-10-31T13:11:35;97602.69;;;22.73;78.21
13867;BME280;7003;46.982;15.248;2022-10-31T13:14:11;97602.47;;;22.14;80.40
13867;BME280;7003;46.982;15.248;2022-10-31T13:16:46;97606.69;;;22.37;81.80
13867;BME280;7003;46.982;15.248;2022-10-31T13:19:18;97590.34;;;22.58;80.81
13867;BME280;7003;46.982;15.248;2022-10-31T13:21:55;97591.19;;;22.44;82.99
13867;BME280;7003;46.982;15.248;2022-10-31T13:24:30;97592.72;;;22.52;83.99
13867;BME280;7003;46.982;15.248;2022-10-31T13:27:03;97589.56;;;22.68;84.11
13867;BME280;7003;46.982;15.248;2022-10-31T13:29:41;97591.19;;;22.34;84.57
13867;BME280;7003;46.982;15.248;2022-10-31T13:32:15;97587.66;;;22.47;85.08